Time;durP1;ratioP1;P1;durP2;ratioP2;P2;SDS_P1;SDS_P2;PMS_P1;PMS_P2;Temp;Humidity;BMP_temperature;BMP_pressure;BME280_temperature;BME280_humidity;BME280_pressure;Samples;Min_cycle;Max_cycle;Signal;HPM_P1;HPM_P2
2022/10/11 00:01:18;;;;;;;43.17;34.17;;;;;;;11.20;96.86;98332.81;10410697;28;20036;-58
2022/10/11 00:06:17;;;;;;;40.97;33.88;;;;;;;11.15;97.09;98335.38;10411947;28;20419;-58
2022/10/11 00:11:16;;;;;;;41.72;35.22;;;;;;;11.07;98.33;98326.66;10413786;28;20040;-58
2022/10/11 00:16:15;;;;;;;43.45;34.50;;;;;;;11.00;98.70;98312.78;10415103;28;20046;-58
2022/10/11 00:21:15;;;;;;;44.33;34.92;;;;;;;11.00;99.24;98309.31;10416589;28;20466;-58
2022/10/11 00:26:14;;;;;;;47.08;37.20;;;;;;;11.00;99.14;98304.13;10422516;28;20033;-58
2022/10/11 00:31:17;;;;;;;48.38;37.47;;;;;;;10.94;98.58;98296.28;10422262;28;20071;-58
2022/10/11 00:36:17;;;;;;;46.72;36.72;;;;;;;10.91;99.12;98299.72;10422142;28;20478;-58
2022/10/11 00:41:16;;;;;;;45.17;35.78;;;;;;;10.75;99.96;98305.63;10422172;28;20071;-58
2022/10/11 00:46:26;;;;;;;43.85;35.95;;;;;;;10.61;100.00;98290.84;10421840;28;20488;-58
2022/10/11 00:51:49;;;;;;;44.92;37.22;;;;;;;10.54;100.00;98289.06;10421718;28;20079;-58
2022/10/11 00:56:54;;;;;;;47.67;37.67;;;;;;;10.45;100.00;98294.19;10421389;28;20052;-58
2022/10/11 01:01:54;;;;;;;51.05;38.67;;;;;;;10.35;100.00;98276.78;10421114;28;20063;-58
2022/10/11 01:06:53;;;;;;;47.40;36.92;;;;;;;10.28;100.00;98277.59;10421012;28;20488;-58
2022/10/11 01:11:55;;;;;;;49.42;37.72;;;;;;;10.41;100.00;98295.00;10418226;28;20071;-58
2022/10/11 01:17:16;;;;;;;47.03;37.38;;;;;;;10.34;100.00;98275.06;10416989;28;20539;-58
2022/10/11 01:22:17;;;;;;;46.85;37.22;;;;;;;10.39;100.00;98278.56;10417154;28;20068;-58
2022/10/11 01:27:47;;;;;;;49.13;40.17;;;;;;;10.27;100.00;98291.44;10416662;28;20066;-58
2022/10/11 01:32:52;;;;;;;43.30;34.78;;;;;;;10.09;100.00;98282.63;10416175;28;20495;-58
2022/10/11 01:38:15;;;;;;;51.83;38.45;;;;;;;10.10;100.00;98270.53;10416382;28;20517;-58
2022/10/11 01:43:17;;;;;;;49.10;36.80;;;;;;;10.20;100.00;98260.25;10416040;28;20076;-58
2022/10/11 01:48:16;;;;;;;45.85;36.63;;;;;;;10.28;100.00;98249.94;10415653;28;20083;-58
2022/10/11 01:53:44;;;;;;;44.78;33.58;;;;;;;10.39;100.00;98263.00;10415686;28;20060;-58
2022/10/11 01:58:49;;;;;;;44.95;33.80;;;;;;;10.43;100.00;98256.97;10415216;28;20068;-58
2022/10/11 02:03:54;;;;;;;43.83;34.60;;;;;;;10.40;100.00;98262.13;10415086;28;20056;-58
2022/10/11 02:08:59;;;;;;;46.75;35.85;;;;;;;10.49;100.00;98262.19;10415498;28;20067;-58
2022/10/11 02:14:08;;;;;;;48.60;36.22;;;;;;;10.49;100.00;98259.59;10415157;28;20067;-58
2022/10/11 02:19:10;;;;;;;46.72;37.22;;;;;;;10.44;100.00;98258.72;10414556;28;20511;-57
2022/10/11 02:24:17;;;;;;;48.97;37.08;;;;;;;10.44;100.00;98263.91;10414817;28;20067;-58
2022/10/11 02:29:19;;;;;;;54.85;37.78;;;;;;;10.47;100.00;98266.53;10413944;28;20075;-58
2022/10/11 02:34:24;;;;;;;51.67;36.08;;;;;;;10.49;100.00;98267.38;10414109;28;20127;-58
2022/10/11 02:39:29;;;;;;;48.38;36.90;;;;;;;10.36;100.00;98252.59;10414000;28;20083;-58
2022/10/11 02:44:36;;;;;;;54.13;38.33;;;;;;;10.48;100.00;98255.28;10413284;28;20091;-58
2022/10/11 02:49:35;;;;;;;51.95;39.95;;;;;;;10.54;100.00;98254.44;10413632;28;20069;-58
2022/10/11 02:54:34;;;;;;;49.90;38.08;;;;;;;10.52;100.00;98245.78;10413569;28;20060;-58
2022/10/11 02:59:33;;;;;;;46.97;35.72;;;;;;;10.54;100.00;98247.56;10412886;28;20064;-58
2022/10/11 03:04:32;;;;;;;50.47;35.88;;;;;;;10.49;100.00;98251.81;10412780;28;20032;-58
2022/10/11 03:09:31;;;;;;;48.15;36.30;;;;;;;10.44;100.00;98247.47;10414374;28;20027;-58
2022/10/11 03:14:30;;;;;;;46.05;36.17;;;;;;;10.41;100.00;98235.34;10416552;28;20020;-58
2022/10/11 03:19:29;;;;;;;43.75;33.25;;;;;;;10.42;100.00;98229.28;10416348;28;20037;-58
2022/10/11 03:24:28;;;;;;;42.55;32.72;;;;;;;10.58;100.00;98233.72;10416349;28;20033;-58
2022/10/11 03:29:27;;;;;;;41.42;32.53;;;;;;;10.69;100.00;98231.22;10416249;28;20082;-58
2022/10/11 03:34:26;;;;;;;39.33;31.30;;;;;;;10.78;100.00;98236.47;10416221;28;20033;-58
2022/10/11 03:39:25;;;;;;;39.63;31.65;;;;;;;10.72;100.00;98240.75;10408985;28;20479;-58
2022/10/11 03:44:24;;;;;;;40.67;30.85;;;;;;;10.43;100.00;98232.78;10415885;28;20050;-58
2022/10/11 03:49:23;;;;;;;55.63;32.53;;;;;;;10.39;100.00;98230.13;10415494;28;20086;-58
2022/10/11 03:54:22;;;;;;;;;;;;;;;10.39;100.00;98235.31;10416035;28;20063;-58
2022/10/11 03:59:21;;;;;;;40.95;32.17;;;;;;;10.49;100.00;98233.66;10420897;28;19912;-58
2022/10/11 04:04:20;;;;;;;40.13;32.17;;;;;;;10.50;100.00;98230.22;10422110;28;20043;-58
2022/10/11 04:09:19;;;;;;;36.95;30.38;;;;;;;10.57;100.00;98237.19;10421843;28;20139;-58
2022/10/11 04:14:18;;;;;;;37.08;30.55;;;;;;;10.47;100.00;98224.13;10418655;28;20024;-58
2022/10/11 04:19:17;;;;;;;38.60;31.48;;;;;;;10.46;100.00;98215.47;10418547;28;20047;-58
2022/10/11 04:24:16;;;;;;;41.08;32.53;;;;;;;10.60;100.00;98233.75;10418289;28;20482;-58
2022/10/11 04:29:15;;;;;;;40.97;32.40;;;;;;;10.64;99.99;98226.84;10418187;28;20676;-58
2022/10/11 04:34:14;;;;;;;44.20;34.05;;;;;;;10.76;99.70;98227.78;10418017;28;20162;-58
2022/10/11 04:39:13;;;;;;;43.65;36.05;;;;;;;10.82;99.93;98229.53;10418297;28;20068;-58
2022/10/11 04:44:12;;;;;;;50.78;39.60;;;;;;;10.87;99.83;98222.69;10417871;28;20032;-58
2022/10/11 04:49:11;;;;;;;56.63;42.22;;;;;;;10.91;99.68;98227.03;10416952;28;20036;-58
2022/10/11 04:54:10;;;;;;;53.17;40.63;;;;;;;11.01;99.02;98225.34;10393817;28;20035;-58
2022/10/11 04:59:09;;;;;;;52.03;38.67;;;;;;;11.08;99.60;98224.53;10376590;28;20057;-58
2022/10/11 05:04:08;;;;;;;50.53;37.15;;;;;;;11.16;99.12;98229.75;10376238;28;20056;-58
2022/10/11 05:09:07;;;;;;;50.63;39.38;;;;;;;11.22;99.21;98229.75;10409350;28;20039;-58
2022/10/11 05:14:06;;;;;;;54.63;39.72;;;;;;;11.25;99.36;98216.81;10405698;28;20020;-58
2022/10/11 05:19:05;;;;;;;50.95;38.95;;;;;;;11.51;98.80;98245.47;10379386;28;20060;-58
2022/10/11 05:24:04;;;;;;;48.72;38.42;;;;;;;11.68;98.48;98241.16;10403291;28;20048;-58
2022/10/11 05:29:03;;;;;;;;;;;;;;;11.84;98.37;98249.03;10398528;28;20484;-58
2022/10/11 05:34:02;;;;;;;51.47;37.45;;;;;;;11.98;98.03;98249.91;10385521;28;20407;-58
2022/10/11 05:39:01;;;;;;;42.92;35.63;;;;;;;12.13;97.39;98250.78;10415352;28;20487;-58
2022/10/11 05:44:00;;;;;;;50.35;35.35;;;;;;;12.23;96.56;98253.41;10413168;28;20037;-58
2022/10/11 05:48:59;;;;;;;58.85;40.83;;;;;;;12.14;95.98;98260.34;10382760;28;20039;-58
2022/10/11 05:53:58;;;;;;;59.53;46.03;;;;;;;12.07;96.01;98252.53;10375788;28;20397;-58
2022/10/11 05:58:57;;;;;;;64.30;46.85;;;;;;;12.20;95.51;98240.38;10371007;28;20028;-58
2022/10/11 06:03:56;;;;;;;63.50;47.45;;;;;;;12.28;95.06;98241.28;10380499;28;20033;-58
2022/10/11 06:08:55;;;;;;;63.13;40.63;;;;;;;12.39;94.30;98249.09;10406564;28;20055;-58
2022/10/11 06:13:56;;;;;;;60.28;33.95;;;;;;;12.48;94.23;98258.63;10414745;28;20032;-58
2022/10/11 06:18:56;;;;;;;45.78;32.08;;;;;;;12.69;94.17;98263.81;10413430;28;20541;-58
2022/10/11 06:23:55;;;;;;;53.80;35.20;;;;;;;12.93;93.52;98254.25;10414619;28;20075;-58
2022/10/11 06:28:54;;;;;;;46.15;35.53;;;;;;;13.18;92.76;98261.97;10414108;28;20463;-58
2022/10/11 06:33:53;;;;;;;44.28;34.35;;;;;;;13.35;91.20;98262.75;10393122;28;20052;-58
2022/10/11 06:39:10;;;;;;;44.45;30.30;;;;;;;13.28;89.76;98245.41;10372384;28;20460;-58
2022/10/11 06:44:10;;;;;;;35.90;27.02;;;;;;;13.62;89.86;98255.75;10396739;28;20075;-58
2022/10/11 06:49:09;;;;;;;37.97;26.90;;;;;;;13.76;88.75;98277.41;10413578;28;20071;-58
2022/10/11 06:54:08;;;;;;;32.92;27.13;;;;;;;13.74;88.65;98281.75;10386899;28;20033;-58
2022/10/11 06:59:07;;;;;;;34.95;25.30;;;;;;;13.78;88.24;98278.25;10373312;28;20056;-58
2022/10/11 07:04:07;;;;;;;;;;;;;;;13.75;87.95;98270.47;10372565;28;20072;-58
2022/10/11 07:09:07;;;;;;;35.90;27.13;;;;;;;13.74;88.64;98279.13;10373474;28;20413;-58
2022/10/11 07:14:06;;;;;;;32.40;26.02;;;;;;;13.77;88.70;98269.56;10371755;28;20084;-58
2022/10/11 07:19:06;;;;;;;33.70;25.95;;;;;;;13.88;88.67;98277.31;10372300;28;20492;-58
2022/10/11 07:24:05;;;;;;;32.35;26.67;;;;;;;14.07;87.54;98264.16;10371652;28;20447;-58
2022/10/11 07:29:05;;;;;;;34.78;27.92;;;;;;;14.07;86.36;98238.06;10383845;28;20061;-58
2022/10/11 07:34:04;;;;;;;29.83;24.27;;;;;;;14.40;86.05;98249.97;10420033;28;20075;-58
2022/10/11 07:39:04;;;;;;;;;;;;;;;14.59;85.62;98255.91;10419268;28;20044;-58
2022/10/11 07:44:03;;;;;;;29.15;22.48;;;;;;;14.72;85.38;98236.66;10379810;28;20399;-58
2022/10/11 07:49:02;;;;;;;26.65;22.25;;;;;;;15.05;83.84;98260.72;10407855;28;20061;-58
2022/10/11 07:54:02;;;;;;;;;;;;;;;15.31;84.08;98263.03;10379607;28;20025;-58
2022/10/11 07:59:04;;;;;;;30.23;21.77;;;;;;;15.62;83.80;98266.16;10380581;28;20355;-58
2022/10/11 08:04:03;;;;;;;34.47;22.70;;;;;;;15.93;82.51;98252.66;10378672;28;20061;-58
2022/10/11 08:09:04;;;;;;;29.15;22.70;;;;;;;16.16;80.83;98257.56;10378427;28;20109;-58
2022/10/11 08:14:07;;;;;;;33.42;24.55;;;;;;;16.36;79.99;98262.47;10378306;28;20084;-58
2022/10/11 08:19:06;;;;;;;32.67;24.38;;;;;;;16.54;78.63;98276.19;10378245;28;20081;-58
2022/10/11 08:24:06;;;;;;;26.55;21.55;;;;;;;16.54;74.59;98271.78;10377690;28;20099;-58
2022/10/11 08:29:06;;;;;;;28.52;23.25;;;;;;;16.30;75.17;98262.56;10412007;28;20068;-58
2022/10/11 08:34:05;;;;;;;28.13;22.20;;;;;;;16.23;75.33;98258.31;10410538;28;20484;-58
2022/10/11 08:39:05;;;;;;;32.50;23.13;;;;;;;16.01;75.40;98266.50;10418547;28;20059;-58
2022/10/11 08:44:16;;;;;;;29.05;21.05;;;;;;;15.83;75.82;98266.75;10417209;28;20068;-58
2022/10/11 08:49:18;;;;;;;26.35;22.63;;;;;;;15.60;76.17;98269.63;10417956;28;20071;-58
2022/10/11 08:54:38;;;;;;;31.75;21.85;;;;;;;15.78;76.48;98263.31;10417635;28;20087;-58
2022/10/11 08:59:52;;;;;;;28.75;19.58;;;;;;;15.76;76.05;98249.38;10376016;28;20075;-58
2022/10/11 09:04:53;;;;;;;28.67;20.88;;;;;;;16.20;76.36;98255.75;10376015;28;20072;-58
2022/10/11 09:09:58;;;;;;;28.77;21.65;;;;;;;16.72;75.18;98266.25;10416948;28;20456;-58
2022/10/11 09:15:15;;;;;;;28.27;21.83;;;;;;;17.20;73.26;98252.28;10415896;28;20064;-58
2022/10/11 09:20:42;;;;;;;32.03;23.10;;;;;;;17.60;70.12;98250.59;10415213;28;20129;-59
2022/10/11 09:26:19;;;;;;;30.42;22.48;;;;;;;17.85;69.43;98245.72;10413015;28;20574;-59
2022/10/11 09:31:19;;;;;;;24.63;18.88;;;;;;;18.17;66.65;98245.84;10353912;28;20076;-59
2022/10/11 09:36:27;;;;;;;29.75;21.52;;;;;;;18.41;65.65;98240.88;10396982;28;20052;-59
2022/10/11 09:41:37;;;;;;;36.05;22.38;;;;;;;18.51;64.51;98237.13;10388034;28;20075;-58
2022/10/11 09:46:40;;;;;;;26.17;20.60;;;;;;;18.80;62.12;98235.53;10374798;28;20059;-59
2022/10/11 09:51:43;;;;;;;26.70;20.90;;;;;;;18.82;60.50;98231.09;10374207;28;20507;-59
2022/10/11 09:56:44;;;;;;;28.25;20.50;;;;;;;18.90;61.47;98231.75;10374363;28;20056;-59
2022/10/11 10:01:43;;;;;;;25.08;19.95;;;;;;;18.99;61.31;98228.88;10400312;28;20066;-59
2022/10/11 10:06:42;;;;;;;23.85;18.80;;;;;;;19.35;60.88;98223.47;10399279;28;20511;-58
2022/10/11 10:11:41;;;;;;;27.45;19.75;;;;;;;19.42;60.61;98217.13;10375950;28;20451;-59
2022/10/11 10:16:40;;;;;;;27.48;19.25;;;;;;;19.33;58.88;98206.88;10376824;28;20475;-59
2022/10/11 10:21:45;;;;;;;24.92;18.35;;;;;;;19.31;60.12;98208.69;10414466;28;20067;-58
2022/10/11 10:27:04;;;;;;;24.20;18.70;;;;;;;19.51;59.88;98199.31;10417364;28;20060;-59
2022/10/11 10:32:27;;;;;;;24.80;19.23;;;;;;;19.61;58.31;98206.09;10417715;28;20037;-58
2022/10/11 10:37:35;;;;;;;23.63;17.75;;;;;;;19.68;57.59;98185.72;10417341;28;20371;-59
2022/10/11 10:42:34;;;;;;;23.08;17.30;;;;;;;19.83;55.98;98190.47;10417475;28;20028;-59
2022/10/11 10:47:42;;;;;;;24.67;17.42;;;;;;;20.04;56.72;98199.47;10416921;28;20056;-59
2022/10/11 11:09:23;;;;;;;22.45;17.80;;;;;;;20.59;53.13;98183.66;10491895;27;20484;-58
2022/10/11 11:14:57;;;;;;;21.65;17.33;;;;;;;20.47;53.18;98174.38;10486447;28;20516;-58
2022/10/11 11:20:17;;;;;;;21.95;16.80;;;;;;;20.59;53.00;98176.59;10449266;28;20064;-58
2022/10/11 11:25:49;;;;;;;21.75;18.35;;;;;;;20.89;52.61;98185.19;10447943;28;20506;-58
2022/10/11 11:31:03;;;;;;;21.60;18.10;;;;;;;20.98;52.32;98173.44;10479988;28;20838;-59
2022/10/11 11:36:08;;;;;;;26.45;17.50;;;;;;;20.94;51.77;98171.84;10489738;28;20070;-58
2022/10/11 11:41:21;;;;;;;23.13;17.55;;;;;;;20.86;50.26;98158.91;10491575;28;20070;-58
2022/10/11 11:46:29;;;;;;;21.42;15.48;;;;;;;20.45;51.64;98152.47;10490303;28;20063;-58
2022/10/11 11:51:40;;;;;;;19.50;14.70;;;;;;;20.33;52.17;98159.00;10490595;28;20644;-58
2022/10/11 11:56:56;;;;;;;21.30;14.52;;;;;;;20.10;52.78;98161.56;10489079;28;20059;-58
2022/10/11 12:02:07;;;;;;;18.70;13.65;;;;;;;19.82;52.84;98159.81;10489806;28;20077;-58
2022/10/11 12:07:13;;;;;;;18.65;14.55;;;;;;;19.50;53.32;98161.63;10479747;28;20067;-58
2022/10/11 12:12:35;;;;;;;17.15;14.15;;;;;;;19.48;54.24;98150.28;10461578;28;20059;-58
2022/10/11 12:17:55;;;;;;;20.23;14.93;;;;;;;19.49;53.55;98153.78;10461118;28;20529;-58
2022/10/11 12:23:20;;;;;;;17.83;14.75;;;;;;;19.19;53.99;98154.66;10461157;28;20059;-58
2022/10/11 12:29:11;;;;;;;19.08;15.07;;;;;;;19.32;54.34;98149.91;10444339;28;20067;-58
2022/10/11 12:34:25;;;;;;;23.02;15.63;;;;;;;19.49;54.15;98146.75;10391477;28;20064;-58
2022/10/11 12:39:24;;;;;;;18.05;14.85;;;;;;;19.66;53.43;98146.25;10458211;28;20059;-58
2022/10/11 12:44:25;;;;;;;18.20;14.52;;;;;;;19.65;53.27;98148.03;10457733;28;20055;-58
2022/10/11 12:49:42;;;;;;;19.80;15.30;;;;;;;19.76;53.59;98147.66;10458153;28;20437;-59
2022/10/11 12:54:50;;;;;;;16.70;14.57;;;;;;;19.79;53.16;98144.97;10460026;28;20074;-58
2022/10/11 12:59:50;;;;;;;17.23;13.48;;;;;;;19.63;53.00;98147.22;10457983;28;20068;-58
2022/10/11 13:04:49;;;;;;;16.63;13.02;;;;;;;19.51;53.82;98144.03;10456953;28;20067;-58
2022/10/11 13:09:52;;;;;;;19.33;13.50;;;;;;;19.50;53.76;98148.47;10458728;28;20059;-58
2022/10/11 13:15:05;;;;;;;20.45;13.02;;;;;;;19.34;53.83;98140.16;10458420;28;20534;-58
2022/10/11 13:20:08;;;;;;;16.58;12.65;;;;;;;18.94;54.88;98151.00;10457631;28;20498;-58
2022/10/11 13:25:07;;;;;;;16.45;12.63;;;;;;;18.74;55.81;98148.94;10458670;28;20063;-58
2022/10/11 13:30:15;;;;;;;17.38;12.10;;;;;;;18.69;56.40;98143.81;10457750;28;20529;-58
2022/10/11 13:35:38;;;;;;;18.02;12.18;;;;;;;18.59;56.65;98153.66;10458838;28;20502;-58
2022/10/11 13:40:37;;;;;;;18.15;12.73;;;;;;;18.33;57.24;98149.09;10458010;28;20071;-58
2022/10/11 13:45:38;;;;;;;21.13;12.38;;;;;;;18.17;57.48;98122.38;10457843;28;20067;-58
2022/10/11 13:50:38;;;;;;;15.00;11.00;;;;;;;18.12;57.66;98155.75;10457773;28;20075;-58
2022/10/11 13:56:00;;;;;;;16.38;10.32;;;;;;;17.89;57.47;98158.94;10458129;28;20048;-58
2022/10/11 14:01:06;;;;;;;14.02;9.70;;;;;;;17.86;57.78;98158.16;10457169;28;20060;-58
2022/10/11 14:06:05;;;;;;;19.48;11.15;;;;;;;17.79;57.76;98156.59;10456814;28;20048;-58
2022/10/11 14:11:06;;;;;;;13.85;10.10;;;;;;;17.39;58.27;98165.34;10457096;28;20078;-58
2022/10/11 14:16:10;;;;;;;12.20;8.75;;;;;;;17.13;58.75;98161.50;10428186;28;20483;-58
2022/10/11 14:21:18;;;;;;;11.82;8.43;;;;;;;16.87;59.25;98160.28;10415898;28;20800;-58
2022/10/11 14:26:18;;;;;;;15.13;8.70;;;;;;;16.75;59.38;98165.72;10415676;28;20052;-58
2022/10/11 14:31:17;;;;;;;13.50;9.75;;;;;;;16.43;60.15;98150.59;10415327;28;20059;-57
2022/10/11 14:36:16;;;;;;;16.15;8.50;;;;;;;16.39;59.92;98156.78;10415423;28;20063;-58
2022/10/11 14:41:15;;;;;;;19.55;9.70;;;;;;;16.33;60.07;98152.53;10414408;28;20040;-57
2022/10/11 14:46:21;;;;;;;17.45;9.80;;;;;;;16.19;60.32;98157.16;10413938;28;20052;-58
2022/10/11 14:51:24;;;;;;;15.85;9.57;;;;;;;16.32;59.86;98170.88;10415275;28;20071;-57
2022/10/11 14:56:23;;;;;;;13.50;9.20;;;;;;;16.22;60.17;98164.94;10415381;28;20072;-57
2022/10/11 15:01:22;;;;;;;;;;;;;;;16.04;60.61;98177.47;10415553;28;20040;-58
2022/10/11 15:06:32;;;;;;;19.40;9.77;;;;;;;15.78;61.42;98179.56;10412664;28;19913;-57
2022/10/11 15:11:32;;;;;;;16.65;9.57;;;;;;;15.82;61.29;98176.06;10412076;28;20063;-58
2022/10/11 15:16:31;;;;;;;18.88;12.02;;;;;;;15.72;61.88;98180.53;10412349;28;20377;-58
2022/10/11 15:21:31;;;;;;;15.98;11.38;;;;;;;15.53;62.37;98184.28;10411258;28;20071;-58
2022/10/11 15:26:30;;;;;;;19.67;13.13;;;;;;;15.41;62.97;98185.31;10412269;28;20056;-58
2022/10/11 15:31:28;;;;;;;;;;;;;;;15.25;63.62;98182.94;10412714;28;20075;-57
2022/10/11 15:36:28;;;;;;;22.93;13.27;;;;;;;15.13;64.52;98190.94;10412073;28;20008;-58
2022/10/11 15:41:27;;;;;;;16.60;10.82;;;;;;;14.98;64.54;98196.31;10412153;28;20072;-58
2022/10/11 15:46:26;;;;;;;;;;;;;;;14.97;65.11;98189.38;10420170;28;20050;-57
2022/10/11 15:51:25;;;;;;;22.30;14.68;;;;;;;14.92;65.10;98185.94;10419468;28;19912;-57
2022/10/11 15:56:23;;;;;;;;;;;;;;;14.86;65.37;98192.09;10419734;28;20415;-58
2022/10/11 16:01:22;;;;;;;17.52;12.73;;;;;;;14.82;66.54;98199.09;10418732;28;19966;-57
2022/10/11 16:06:22;;;;;;;;;;;;;;;14.86;66.69;98207.78;10418978;28;20033;-57
2022/10/11 16:11:21;;;;;;;19.90;11.40;;;;;;;14.96;67.15;98203.31;10429690;28;19955;-58
2022/10/11 16:16:19;;;;;;;17.73;10.82;;;;;;;14.97;67.69;98212.91;10457063;28;20102;-57
2022/10/11 16:21:20;;;;;;;;;;;;;;;14.94;67.81;98210.31;10459496;28;20036;-57
2022/10/11 16:26:19;;;;;;;15.25;10.55;;;;;;;14.92;68.43;98214.69;10459287;28;20077;-57
2022/10/11 16:31:19;;;;;;;;;;;;;;;14.92;68.49;98212.06;10458937;28;20028;-58
2022/10/11 16:36:39;;;;;;;15.95;8.82;;;;;;;14.88;68.86;98226.06;10453578;28;19969;-57
2022/10/11 16:41:38;;;;;;;;;;;;;;;14.83;69.33;98224.38;10458617;28;20067;-58
2022/10/11 16:46:37;;;;;;;18.73;12.68;;;;;;;14.79;69.75;98229.63;10457939;28;19965;-58
2022/10/11 16:51:35;;;;;;;19.70;11.95;;;;;;;14.75;70.01;98233.16;10456000;28;20090;-58
2022/10/11 16:56:35;;;;;;;14.70;9.80;;;;;;;14.74;69.73;98229.69;10456334;28;20020;-58
2022/10/11 17:01:34;;;;;;;13.90;10.02;;;;;;;14.66;69.71;98222.75;10457409;28;20071;-58
2022/10/11 17:06:33;;;;;;;;;;;;;;;14.61;69.66;98233.25;10457043;28;20043;-58
2022/10/11 17:11:32;;;;;;;14.32;9.93;;;;;;;14.59;70.15;98237.63;10457168;28;20374;-58
2022/10/11 17:16:31;;;;;;;11.73;9.10;;;;;;;14.56;70.13;98235.03;10456162;28;20052;-58
2022/10/11 17:21:30;;;;;;;12.25;9.00;;;;;;;14.52;70.09;98239.44;10456362;28;20498;-58
2022/10/11 17:26:29;;;;;;;;;;;;;;;14.44;70.60;98243.00;10456249;28;20475;-58
2022/10/11 17:31:28;;;;;;;15.50;10.10;;;;;;;14.41;70.53;98236.91;10457077;28;20302;-58
2022/10/11 17:36:32;;;;;;;18.35;11.75;;;;;;;14.32;70.86;98247.44;10456569;28;20062;-58
2022/10/11 17:41:31;;;;;;;17.25;11.07;;;;;;;14.29;71.51;98246.59;10455675;28;20059;-58
2022/10/11 17:46:31;;;;;;;;;;;;;;;14.26;71.90;98246.63;10456794;28;20056;-58
2022/10/11 17:51:31;;;;;;;20.95;12.68;;;;;;;14.18;72.43;98249.28;10455714;28;19939;-58
2022/10/11 17:56:30;;;;;;;20.35;11.30;;;;;;;14.16;72.78;98262.34;10455593;28;20056;-58
2022/10/11 18:01:29;;;;;;;;;;;;;;;14.12;72.81;98254.53;10455911;28;20499;-58
2022/10/11 18:06:30;;;;;;;20.52;11.43;;;;;;;14.02;73.05;98245.91;10455224;28;20413;-58
2022/10/11 18:11:30;;;;;;;19.27;11.13;;;;;;;14.10;73.57;98262.41;10455146;28;20086;-58
2022/10/11 18:16:30;;;;;;;17.77;11.13;;;;;;;14.07;74.09;98261.56;10455414;28;20055;-58
2022/10/11 18:21:30;;;;;;;17.17;10.60;;;;;;;14.04;73.91;98277.25;10453295;28;20137;-58
2022/10/11 18:26:29;;;;;;;16.85;11.23;;;;;;;13.97;74.51;98271.19;10454857;28;20055;-57
2022/10/11 18:31:29;;;;;;;;;;;;;;;13.86;74.83;98273.00;10455583;28;20062;-58
2022/10/11 18:36:29;;;;;;;;;;;;;;;13.83;74.79;98275.63;10454476;28;20596;-58
2022/10/11 18:41:31;;;;;;;14.90;9.80;;;;;;;13.77;75.42;98272.19;10454594;28;19966;-58
2022/10/11 18:46:31;;;;;;;15.65;10.38;;;;;;;13.80;75.35;98278.22;10452920;28;20109;-58
2022/10/11 18:51:36;;;;;;;16.58;11.00;;;;;;;13.70;75.45;98277.41;10453672;28;20565;-58
2022/10/11 18:56:35;;;;;;;13.00;9.55;;;;;;;13.74;75.87;98285.22;10454300;28;20486;-57
2022/10/11 19:01:38;;;;;;;16.15;9.90;;;;;;;13.61;76.18;98287.88;10454050;28;20067;-57
2022/10/11 19:06:40;;;;;;;16.15;10.20;;;;;;;13.51;75.83;98267.03;10453844;28;20514;-57
2022/10/11 19:11:39;;;;;;;16.13;9.75;;;;;;;13.66;76.59;98297.44;10452392;28;20071;-58
2022/10/11 19:16:41;;;;;;;18.80;10.82;;;;;;;13.61;76.21;98294.00;10455131;28;20055;-58
2022/10/11 19:21:40;;;;;;;19.27;11.73;;;;;;;13.50;76.47;98280.09;10461676;28;20482;-57
2022/10/11 19:26:40;;;;;;;16.55;9.93;;;;;;;13.55;76.66;98294.00;10461881;28;20064;-57
2022/10/11 19:31:43;;;;;;;17.00;10.35;;;;;;;13.57;76.39;98298.34;10461850;28;20462;-58
2022/10/11 19:36:43;;;;;;;18.38;10.95;;;;;;;13.55;76.28;98294.88;10461007;28;20052;-57
2022/10/11 19:41:42;;;;;;;17.02;11.15;;;;;;;13.54;75.92;98307.94;10461169;28;20710;-58
2022/10/11 19:46:42;;;;;;;17.30;10.93;;;;;;;13.51;76.47;98305.28;10461647;28;20055;-58
2022/10/11 19:51:41;;;;;;;19.25;12.18;;;;;;;13.50;76.62;98304.44;10460720;28;20520;-58
2022/10/11 19:56:41;;;;;;;21.05;13.32;;;;;;;13.48;76.41;98303.56;10460940;28;20498;-58
2022/10/11 20:01:40;;;;;;;18.33;13.48;;;;;;;13.40;76.96;98302.75;10454447;28;20095;-58
2022/10/11 20:06:41;;;;;;;20.15;13.43;;;;;;;13.50;77.24;98317.47;10458404;28;20514;-58
2022/10/11 20:11:40;;;;;;;22.13;14.80;;;;;;;13.52;78.08;98315.72;10459294;28;20351;-58
2022/10/11 20:16:41;;;;;;;31.17;14.82;;;;;;;13.53;78.32;98312.22;10459724;28;20036;-57
2022/10/11 20:21:40;;;;;;;20.92;14.05;;;;;;;13.52;78.75;98313.13;10457526;28;20067;-57
2022/10/11 20:26:39;;;;;;;18.45;13.05;;;;;;;13.50;79.32;98316.59;10459334;28;20067;-58
2022/10/11 20:31:39;;;;;;;18.77;12.48;;;;;;;13.48;79.80;98311.38;10458391;28;20039;-57
2022/10/11 20:36:38;;;;;;;21.00;12.32;;;;;;;13.40;80.08;98307.94;10459436;28;20059;-58
2022/10/11 20:41:41;;;;;;;19.25;11.85;;;;;;;13.35;79.98;98302.75;10458486;28;20032;-57
2022/10/11 20:46:40;;;;;;;18.90;11.30;;;;;;;13.46;80.55;98313.13;10458593;28;20074;-58
2022/10/11 20:51:41;;;;;;;17.38;11.57;;;;;;;13.46;80.92;98305.31;10458785;28;20028;-58
2022/10/11 20:56:40;;;;;;;17.45;11.60;;;;;;;13.49;81.00;98315.75;10458460;28;20064;-57
2022/10/11 21:01:40;;;;;;;17.17;12.00;;;;;;;13.38;81.14;98301.88;10458232;28;20340;-58
2022/10/11 21:06:39;;;;;;;22.45;13.43;;;;;;;13.34;81.22;98303.59;10457362;28;20068;-57
2022/10/11 21:11:38;;;;;;;17.02;11.23;;;;;;;13.36;81.30;98311.44;10458086;28;20032;-58
2022/10/11 21:16:37;;;;;;;;;;;;;;;13.11;82.28;98319.31;10458325;28;20063;-58
2022/10/11 21:21:36;;;;;;;19.92;10.98;;;;;;;13.02;83.04;98318.47;10457551;28;19989;-58
2022/10/11 21:26:35;;;;;;;18.55;12.00;;;;;;;12.96;83.72;98314.13;10457287;28;20402;-57
2022/10/11 21:31:34;;;;;;;26.42;17.15;;;;;;;12.94;84.39;98311.53;10457283;28;20136;-57
2022/10/11 21:36:34;;;;;;;23.20;17.83;;;;;;;12.96;83.99;98316.75;10456876;28;20051;-58
2022/10/11 21:41:33;;;;;;;21.83;15.40;;;;;;;12.96;84.15;98319.34;10455766;28;20063;-58
2022/10/11 21:46:32;;;;;;;21.67;15.15;;;;;;;13.01;84.24;98309.78;10455485;28;20478;-58
2022/10/11 21:51:32;;;;;;;23.38;16.05;;;;;;;13.10;84.16;98311.50;10456418;28;20490;-57
2022/10/11 21:56:31;;;;;;;21.80;14.68;;;;;;;13.17;84.28;98301.94;10456333;28;20062;-58
2022/10/11 22:01:30;;;;;;;24.27;14.80;;;;;;;13.19;84.68;98302.78;10455875;28;20067;-58
2022/10/11 22:06:29;;;;;;;23.42;15.02;;;;;;;13.20;84.83;98297.56;10455509;28;20477;-58
2022/10/11 22:11:28;;;;;;;;;;;;;;;13.25;84.75;98300.16;10455596;28;20067;-57
2022/10/11 22:16:27;;;;;;;23.10;16.83;;;;;;;13.26;84.72;98300.19;10453033;28;19965;-58
2022/10/11 22:21:26;;;;;;;24.77;17.45;;;;;;;13.17;84.57;98294.13;10452978;28;20470;-58
2022/10/11 22:26:29;;;;;;;23.55;16.25;;;;;;;13.12;84.54;98284.56;10452790;28;20028;-57
2022/10/11 22:31:29;;;;;;;26.77;17.85;;;;;;;13.11;84.53;98293.25;10454923;28;20082;-58
2022/10/11 22:36:29;;;;;;;29.30;19.98;;;;;;;13.15;84.51;98297.59;10454476;28;20055;-58
2022/10/11 22:41:28;;;;;;;25.75;17.95;;;;;;;13.15;84.44;98294.97;10454575;28;20471;-58
2022/10/11 22:46:27;;;;;;;23.08;16.52;;;;;;;13.08;84.76;98284.59;10454961;28;20467;-58
2022/10/11 22:51:26;;;;;;;;;;;;;;;13.14;85.25;98300.19;10453109;28;20063;-58
2022/10/11 22:56:25;;;;;;;20.65;13.77;;;;;;;13.13;85.46;98301.94;10454876;28;19908;-58
2022/10/11 23:01:24;;;;;;;19.10;13.23;;;;;;;13.05;86.09;98295.88;10453906;28;20096;-58
2022/10/11 23:06:23;;;;;;;20.17;14.13;;;;;;;12.92;87.41;98317.59;10453889;28;20146;-58
2022/10/11 23:11:22;;;;;;;20.10;14.55;;;;;;;12.56;89.32;98308.97;10453801;28;20119;-58
2022/10/11 23:16:20;;;;;;;22.02;15.95;;;;;;;12.19;90.53;98314.09;10454339;28;20056;-57
2022/10/11 23:21:20;;;;;;;21.65;15.60;;;;;;;11.81;91.71;98288.03;10454048;28;20046;-58